sensor_id;sensor_type;location;lat;lon;timestamp;P1;durP1;ratioP1;P2;durP2;ratioP2
8407;SDS011;4241;48.452;9.216;2023-10-19T00:02:05;465.93;;;161.83;;
8407;SDS011;4241;48.452;9.216;2023-10-19T00:04:33;458.20;;;156.40;;
8407;SDS011;4241;48.452;9.216;2023-10-19T00:07:01;464.23;;;161.47;;
8407;SDS011;4241;48.452;9.216;2023-10-19T00:09:30;457.53;;;156.80;;
8407;SDS011;4241;48.452;9.216;2023-10-19T00:12:02;460.73;;;160.30;;
8407;SDS011;4241;48.452;9.216;2023-10-19T00:14:31;463.40;;;162.30;;
8407;SDS011;4241;48.452;9.216;2023-10-19T00:16:57;461.90;;;161.13;;
8407;SDS011;4241;48.452;9.216;2023-10-19T00:19:32;469.37;;;169.67;;
8407;SDS011;4241;48.452;9.216;2023-10-19T00:22:07;460.93;;;161.57;;
8407;SDS011;4241;48.452;9.216;2023-10-19T00:24:40;467.63;;;166.73;;
8407;SDS011;4241;48.452;9.216;2023-10-19T00:27:09;462.13;;;164.47;;
8407;SDS011;4241;48.452;9.216;2023-10-19T00:29:41;465.20;;;167.30;;
8407;SDS011;4241;48.452;9.216;2023-10-19T00:32:13;468.33;;;170.00;;
8407;SDS011;4241;48.452;9.216;2023-10-19T00:34:42;470.47;;;170.67;;
8407;SDS011;4241;48.452;9.216;2023-10-19T00:37:16;468.47;;;171.17;;
8407;SDS011;4241;48.452;9.216;2023-10-19T00:39:50;465.20;;;168.13;;
8407;SDS011;4241;48.452;9.216;2023-10-19T00:42:20;470.00;;;173.17;;
8407;SDS011;4241;48.452;9.216;2023-10-19T00:44:50;464.63;;;168.30;;
8407;SDS011;4241;48.452;9.216;2023-10-19T00:47:26;469.40;;;169.83;;
8407;SDS011;4241;48.452;9.216;2023-10-19T00:50:02;472.43;;;174.23;;
8407;SDS011;4241;48.452;9.216;2023-10-19T00:52:30;465.20;;;170.10;;
8407;SDS011;4241;48.452;9.216;2023-10-19T00:55:07;470.00;;;173.67;;
8407;SDS011;4241;48.452;9.216;2023-10-19T00:57:34;465.03;;;170.20;;
8407;SDS011;4241;48.452;9.216;2023-10-19T01:00:02;466.60;;;170.80;;
8407;SDS011;4241;48.452;9.216;2023-10-19T01:02:46;475.10;;;177.37;;
8407;SDS011;4241;48.452;9.216;2023-10-19T01:05:14;466.83;;;171.60;;
8407;SDS011;4241;48.452;9.216;2023-10-19T01:07:46;470.90;;;174.47;;
8407;SDS011;4241;48.452;9.216;2023-10-19T01:10:21;464.10;;;168.90;;
8407;SDS011;4241;48.452;9.216;2023-10-19T01:12:48;468.40;;;171.67;;
8407;SDS011;4241;48.452;9.216;2023-10-19T01:15:16;467.23;;;173.57;;
8407;SDS011;4241;48.452;9.216;2023-10-19T01:17:49;467.07;;;173.17;;
8407;SDS011;4241;48.452;9.216;2023-10-19T01:20:20;473.90;;;179.37;;
8407;SDS011;4241;48.452;9.216;2023-10-19T01:23:00;466.73;;;172.17;;
8407;SDS011;4241;48.452;9.216;2023-10-19T01:25:45;466.67;;;170.90;;
8407;SDS011;4241;48.452;9.216;2023-10-19T01:28:24;470.27;;;176.73;;
8407;SDS011;4241;48.452;9.216;2023-10-19T01:30:53;464.30;;;169.40;;
8407;SDS011;4241;48.452;9.216;2023-10-19T01:33:21;471.60;;;177.33;;
8407;SDS011;4241;48.452;9.216;2023-10-19T01:35:48;465.70;;;172.93;;
8407;SDS011;4241;48.452;9.216;2023-10-19T01:38:33;470.70;;;177.23;;
8407;SDS011;4241;48.452;9.216;2023-10-19T01:41:01;477.80;;;185.17;;
8407;SDS011;4241;48.452;9.216;2023-10-19T01:43:32;470.50;;;179.43;;
8407;SDS011;4241;48.452;9.216;2023-10-19T01:45:59;477.37;;;186.20;;
8407;SDS011;4241;48.452;9.216;2023-10-19T01:48:29;469.80;;;179.20;;
8407;SDS011;4241;48.452;9.216;2023-10-19T01:50:58;475.43;;;183.73;;
8407;SDS011;4241;48.452;9.216;2023-10-19T01:53:25;467.87;;;178.10;;
8407;SDS011;4241;48.452;9.216;2023-10-19T01:55:53;475.27;;;185.57;;
8407;SDS011;4241;48.452;9.216;2023-10-19T01:58:23;466.30;;;176.97;;
8407;SDS011;4241;48.452;9.216;2023-10-19T02:00:51;472.87;;;184.43;;
8407;SDS011;4241;48.452;9.216;2023-10-19T02:03:20;468.23;;;178.77;;
8407;SDS011;4241;48.452;9.216;2023-10-19T02:05:48;473.00;;;180.70;;
8407;SDS011;4241;48.452;9.216;2023-10-19T02:08:15;470.17;;;181.73;;
8407;SDS011;4241;48.452;9.216;2023-10-19T02:10:46;471.23;;;182.50;;
8407;SDS011;4241;48.452;9.216;2023-10-19T02:13:13;470.07;;;179.40;;
8407;SDS011;4241;48.452;9.216;2023-10-19T02:15:42;468.63;;;179.30;;
8407;SDS011;4241;48.452;9.216;2023-10-19T02:18:08;474.23;;;184.57;;
8407;SDS011;4241;48.452;9.216;2023-10-19T02:20:35;469.27;;;179.67;;
8407;SDS011;4241;48.452;9.216;2023-10-19T02:23:05;472.60;;;181.17;;
8407;SDS011;4241;48.452;9.216;2023-10-19T02:25:32;471.80;;;181.30;;
8407;SDS011;4241;48.452;9.216;2023-10-19T02:28:02;471.30;;;180.23;;
8407;SDS011;4241;48.452;9.216;2023-10-19T02:30:33;466.20;;;174.20;;
8407;SDS011;4241;48.452;9.216;2023-10-19T02:32:59;473.57;;;178.20;;
8407;SDS011;4241;48.452;9.216;2023-10-19T02:35:28;468.50;;;175.93;;
8407;SDS011;4241;48.452;9.216;2023-10-19T02:37:55;474.83;;;178.87;;
8407;SDS011;4241;48.452;9.216;2023-10-19T02:40:23;467.37;;;172.80;;
8407;SDS011;4241;48.452;9.216;2023-10-19T02:42:49;475.60;;;179.63;;
8407;SDS011;4241;48.452;9.216;2023-10-19T02:45:18;470.70;;;174.03;;
8407;SDS011;4241;48.452;9.216;2023-10-19T02:47:45;472.57;;;175.90;;
8407;SDS011;4241;48.452;9.216;2023-10-19T02:50:15;471.83;;;173.47;;
8407;SDS011;4241;48.452;9.216;2023-10-19T02:52:41;469.93;;;170.37;;
8407;SDS011;4241;48.452;9.216;2023-10-19T02:55:09;465.33;;;166.93;;
8407;SDS011;4241;48.452;9.216;2023-10-19T02:57:35;469.73;;;169.70;;
8407;SDS011;4241;48.452;9.216;2023-10-19T03:00:04;464.63;;;163.80;;
8407;SDS011;4241;48.452;9.216;2023-10-19T03:02:36;467.40;;;167.17;;
8407;SDS011;4241;48.452;9.216;2023-10-19T03:05:05;460.40;;;160.50;;
8407;SDS011;4241;48.452;9.216;2023-10-19T03:07:38;465.30;;;164.93;;
8407;SDS011;4241;48.452;9.216;2023-10-19T03:10:08;471.07;;;170.00;;
8407;SDS011;4241;48.452;9.216;2023-10-19T03:12:47;459.23;;;158.03;;
8407;SDS011;4241;48.452;9.216;2023-10-19T03:15:15;469.13;;;167.60;;
8407;SDS011;4241;48.452;9.216;2023-10-19T03:17:42;461.87;;;159.87;;
8407;SDS011;4241;48.452;9.216;2023-10-19T03:20:11;471.33;;;166.63;;
8407;SDS011;4241;48.452;9.216;2023-10-19T03:22:37;462.77;;;161.63;;
8407;SDS011;4241;48.452;9.216;2023-10-19T03:25:04;464.33;;;163.60;;
8407;SDS011;4241;48.452;9.216;2023-10-19T03:27:59;468.37;;;165.37;;
8407;SDS011;4241;48.452;9.216;2023-10-19T03:30:32;457.77;;;156.47;;
8407;SDS011;4241;48.452;9.216;2023-10-19T03:33:03;460.07;;;156.03;;
8407;SDS011;4241;48.452;9.216;2023-10-19T03:35:32;456.63;;;156.83;;
8407;SDS011;4241;48.452;9.216;2023-10-19T03:38:00;459.87;;;157.87;;
8407;SDS011;4241;48.452;9.216;2023-10-19T03:40:33;463.07;;;160.17;;
8407;SDS011;4241;48.452;9.216;2023-10-19T03:43:03;460.53;;;158.00;;
8407;SDS011;4241;48.452;9.216;2023-10-19T03:45:42;463.80;;;160.73;;
8407;SDS011;4241;48.452;9.216;2023-10-19T03:48:14;455.33;;;152.90;;
8407;SDS011;4241;48.452;9.216;2023-10-19T03:50:43;462.77;;;158.97;;
8407;SDS011;4241;48.452;9.216;2023-10-19T03:53:11;458.43;;;155.93;;
8407;SDS011;4241;48.452;9.216;2023-10-19T03:55:38;465.23;;;160.27;;
8407;SDS011;4241;48.452;9.216;2023-10-19T03:58:08;458.13;;;155.97;;
8407;SDS011;4241;48.452;9.216;2023-10-19T04:00:37;460.33;;;155.93;;
8407;SDS011;4241;48.452;9.216;2023-10-19T04:03:04;461.17;;;157.40;;
8407;SDS011;4241;48.452;9.216;2023-10-19T04:05:32;462.20;;;159.47;;
8407;SDS011;4241;48.452;9.216;2023-10-19T04:08:05;464.50;;;160.60;;
8407;SDS011;4241;48.452;9.216;2023-10-19T04:10:38;459.00;;;155.27;;
8407;SDS011;4241;48.452;9.216;2023-10-19T04:13:09;464.23;;;159.13;;
8407;SDS011;4241;48.452;9.216;2023-10-19T04:15:37;458.53;;;155.33;;
8407;SDS011;4241;48.452;9.216;2023-10-19T04:18:04;462.27;;;159.00;;
8407;SDS011;4241;48.452;9.216;2023-10-19T04:20:34;456.33;;;153.00;;
8407;SDS011;4241;48.452;9.216;2023-10-19T04:23:09;459.93;;;154.23;;
8407;SDS011;4241;48.452;9.216;2023-10-19T04:25:39;461.97;;;156.27;;
8407;SDS011;4241;48.452;9.216;2023-10-19T04:28:06;461.37;;;156.83;;
8407;SDS011;4241;48.452;9.216;2023-10-19T04:30:34;461.20;;;155.93;;
8407;SDS011;4241;48.452;9.216;2023-10-19T04:33:02;458.33;;;154.07;;
8407;SDS011;4241;48.452;9.216;2023-10-19T04:35:34;464.80;;;158.90;;
8407;SDS011;4241;48.452;9.216;2023-10-19T04:38:03;457.70;;;153.50;;
8407;SDS011;4241;48.452;9.216;2023-10-19T04:40:33;464.57;;;158.10;;
8407;SDS011;4241;48.452;9.216;2023-10-19T04:43:02;455.20;;;150.93;;
8407;SDS011;4241;48.452;9.216;2023-10-19T04:45:30;466.00;;;161.27;;
8407;SDS011;4241;48.452;9.216;2023-10-19T04:47:57;457.63;;;153.63;;
8407;SDS011;4241;48.452;9.216;2023-10-19T04:50:24;463.17;;;157.17;;
8407;SDS011;4241;48.452;9.216;2023-10-19T04:52:51;456.23;;;151.77;;
8407;SDS011;4241;48.452;9.216;2023-10-19T04:55:18;464.70;;;158.40;;
8407;SDS011;4241;48.452;9.216;2023-10-19T04:57:47;457.77;;;153.07;;
8407;SDS011;4241;48.452;9.216;2023-10-19T05:00:14;463.27;;;158.13;;
8407;SDS011;4241;48.452;9.216;2023-10-19T05:02:45;455.00;;;150.30;;
8407;SDS011;4241;48.452;9.216;2023-10-19T05:05:12;463.93;;;158.43;;
8407;SDS011;4241;48.452;9.216;2023-10-19T05:07:42;456.93;;;153.53;;
8407;SDS011;4241;48.452;9.216;2023-10-19T05:10:09;464.03;;;158.17;;
8407;SDS011;4241;48.452;9.216;2023-10-19T05:12:36;454.63;;;151.97;;
8407;SDS011;4241;48.452;9.216;2023-10-19T05:15:05;458.13;;;154.80;;
8407;SDS011;4241;48.452;9.216;2023-10-19T05:17:33;451.27;;;149.40;;
8407;SDS011;4241;48.452;9.216;2023-10-19T05:20:00;457.93;;;154.40;;
8407;SDS011;4241;48.452;9.216;2023-10-19T05:22:29;458.63;;;154.57;;
8407;SDS011;4241;48.452;9.216;2023-10-19T05:24:57;454.57;;;151.63;;
8407;SDS011;4241;48.452;9.216;2023-10-19T05:27:26;458.53;;;155.37;;
8407;SDS011;4241;48.452;9.216;2023-10-19T05:29:53;458.03;;;155.50;;
8407;SDS011;4241;48.452;9.216;2023-10-19T05:32:21;465.50;;;161.47;;
8407;SDS011;4241;48.452;9.216;2023-10-19T05:34:49;455.87;;;152.40;;
8407;SDS011;4241;48.452;9.216;2023-10-19T05:37:16;462.07;;;159.10;;
8407;SDS011;4241;48.452;9.216;2023-10-19T05:39:43;458.30;;;155.50;;
8407;SDS011;4241;48.452;9.216;2023-10-19T05:42:10;461.17;;;157.87;;
8407;SDS011;4241;48.452;9.216;2023-10-19T05:44:37;457.80;;;155.43;;
8407;SDS011;4241;48.452;9.216;2023-10-19T05:47:04;462.23;;;157.87;;
8407;SDS011;4241;48.452;9.216;2023-10-19T05:49:33;457.33;;;154.10;;
8407;SDS011;4241;48.452;9.216;2023-10-19T05:52:00;461.77;;;158.40;;
8407;SDS011;4241;48.452;9.216;2023-10-19T05:54:28;459.50;;;155.63;;
8407;SDS011;4241;48.452;9.216;2023-10-19T05:56:55;458.73;;;156.20;;
8407;SDS011;4241;48.452;9.216;2023-10-19T05:59:22;460.67;;;156.97;;
8407;SDS011;4241;48.452;9.216;2023-10-19T06:01:51;464.10;;;160.90;;
8407;SDS011;4241;48.452;9.216;2023-10-19T06:04:18;459.23;;;157.33;;
8407;SDS011;4241;48.452;9.216;2023-10-19T06:06:47;464.57;;;161.63;;
8407;SDS011;4241;48.452;9.216;2023-10-19T06:09:14;459.77;;;158.50;;
8407;SDS011;4241;48.452;9.216;2023-10-19T06:11:42;464.53;;;162.07;;
8407;SDS011;4241;48.452;9.216;2023-10-19T06:14:09;458.63;;;156.37;;
8407;SDS011;4241;48.452;9.216;2023-10-19T06:16:36;465.80;;;162.17;;
8407;SDS011;4241;48.452;9.216;2023-10-19T06:19:03;461.33;;;158.93;;
8407;SDS011;4241;48.452;9.216;2023-10-19T06:21:30;468.17;;;165.03;;
8407;SDS011;4241;48.452;9.216;2023-10-19T06:23:59;459.03;;;157.20;;
8407;SDS011;4241;48.452;9.216;2023-10-19T06:26:27;467.10;;;163.27;;
8407;SDS011;4241;48.452;9.216;2023-10-19T06:28:54;460.43;;;160.23;;
8407;SDS011;4241;48.452;9.216;2023-10-19T06:31:24;470.33;;;167.17;;
8407;SDS011;4241;48.452;9.216;2023-10-19T06:33:53;464.60;;;163.57;;
8407;SDS011;4241;48.452;9.216;2023-10-19T06:36:21;465.60;;;164.27;;
8407;SDS011;4241;48.452;9.216;2023-10-19T06:38:48;458.73;;;158.60;;
8407;SDS011;4241;48.452;9.216;2023-10-19T06:41:17;467.97;;;167.10;;
8407;SDS011;4241;48.452;9.216;2023-10-19T06:43:44;458.87;;;159.00;;
8407;SDS011;4241;48.452;9.216;2023-10-19T06:46:11;467.17;;;165.83;;
8407;SDS011;4241;48.452;9.216;2023-10-19T06:48:39;461.27;;;159.90;;
8407;SDS011;4241;48.452;9.216;2023-10-19T06:51:07;467.70;;;166.77;;
8407;SDS011;4241;48.452;9.216;2023-10-19T06:53:34;461.10;;;159.50;;
8407;SDS011;4241;48.452;9.216;2023-10-19T06:56:01;463.97;;;161.20;;
8407;SDS011;4241;48.452;9.216;2023-10-19T06:58:30;456.50;;;154.50;;
8407;SDS011;4241;48.452;9.216;2023-10-19T07:00:57;467.03;;;165.93;;
8407;SDS011;4241;48.452;9.216;2023-10-19T07:03:30;463.47;;;162.77;;
8407;SDS011;4241;48.452;9.216;2023-10-19T07:05:57;461.27;;;160.20;;
8407;SDS011;4241;48.452;9.216;2023-10-19T07:08:24;460.93;;;160.77;;
8407;SDS011;4241;48.452;9.216;2023-10-19T07:10:52;461.57;;;162.77;;
8407;SDS011;4241;48.452;9.216;2023-10-19T07:13:19;462.93;;;163.43;;
8407;SDS011;4241;48.452;9.216;2023-10-19T07:15:49;461.40;;;161.30;;
8407;SDS011;4241;48.452;9.216;2023-10-19T07:18:16;464.63;;;164.80;;
8407;SDS011;4241;48.452;9.216;2023-10-19T07:20:43;460.97;;;160.60;;
8407;SDS011;4241;48.452;9.216;2023-10-19T07:23:13;465.07;;;165.63;;
8407;SDS011;4241;48.452;9.216;2023-10-19T07:25:45;464.80;;;164.40;;
8407;SDS011;4241;48.452;9.216;2023-10-19T07:28:13;467.73;;;167.93;;
8407;SDS011;4241;48.452;9.216;2023-10-19T07:30:40;462.90;;;161.60;;
8407;SDS011;4241;48.452;9.216;2023-10-19T07:33:09;468.63;;;168.23;;
8407;SDS011;4241;48.452;9.216;2023-10-19T07:35:42;463.33;;;162.70;;
8407;SDS011;4241;48.452;9.216;2023-10-19T07:38:12;465.40;;;164.93;;
8407;SDS011;4241;48.452;9.216;2023-10-19T07:40:39;459.87;;;160.27;;
8407;SDS011;4241;48.452;9.216;2023-10-19T07:43:06;466.13;;;165.80;;
8407;SDS011;4241;48.452;9.216;2023-10-19T07:45:33;462.40;;;162.27;;
8407;SDS011;4241;48.452;9.216;2023-10-19T07:48:02;465.67;;;166.43;;
8407;SDS011;4241;48.452;9.216;2023-10-19T07:50:33;460.20;;;162.03;;
8407;SDS011;4241;48.452;9.216;2023-10-19T07:53:01;465.60;;;167.60;;
8407;SDS011;4241;48.452;9.216;2023-10-19T07:55:28;461.87;;;165.00;;
8407;SDS011;4241;48.452;9.216;2023-10-19T07:57:57;462.13;;;163.83;;
8407;SDS011;4241;48.452;9.216;2023-10-19T08:00:26;463.60;;;166.40;;
8407;SDS011;4241;48.452;9.216;2023-10-19T08:02:54;464.73;;;169.30;;
8407;SDS011;4241;48.452;9.216;2023-10-19T08:05:22;464.07;;;166.23;;
8407;SDS011;4241;48.452;9.216;2023-10-19T08:07:50;464.73;;;168.60;;
8407;SDS011;4241;48.452;9.216;2023-10-19T08:10:17;469.87;;;173.00;;
8407;SDS011;4241;48.452;9.216;2023-10-19T08:12:45;465.97;;;169.80;;
8407;SDS011;4241;48.452;9.216;2023-10-19T08:15:13;469.60;;;172.30;;
8407;SDS011;4241;48.452;9.216;2023-10-19T08:17:42;465.83;;;169.40;;
8407;SDS011;4241;48.452;9.216;2023-10-19T08:20:13;477.10;;;182.37;;
8407;SDS011;4241;48.452;9.216;2023-10-19T08:22:48;468.17;;;173.77;;
8407;SDS011;4241;48.452;9.216;2023-10-19T08:25:16;474.13;;;179.80;;
8407;SDS011;4241;48.452;9.216;2023-10-19T08:27:43;469.37;;;179.03;;
8407;SDS011;4241;48.452;9.216;2023-10-19T08:30:13;472.53;;;180.23;;
8407;SDS011;4241;48.452;9.216;2023-10-19T08:32:42;469.37;;;176.67;;
8407;SDS011;4241;48.452;9.216;2023-10-19T08:35:13;471.57;;;179.57;;
8407;SDS011;4241;48.452;9.216;2023-10-19T08:37:40;467.43;;;177.00;;
8407;SDS011;4241;48.452;9.216;2023-10-19T08:40:09;473.00;;;184.60;;
8407;SDS011;4241;48.452;9.216;2023-10-19T08:42:41;471.60;;;183.60;;
8407;SDS011;4241;48.452;9.216;2023-10-19T08:45:08;476.60;;;189.57;;
8407;SDS011;4241;48.452;9.216;2023-10-19T08:47:37;477.47;;;188.77;;
8407;SDS011;4241;48.452;9.216;2023-10-19T08:50:09;476.37;;;189.60;;
8407;SDS011;4241;48.452;9.216;2023-10-19T08:52:39;481.67;;;192.53;;
8407;SDS011;4241;48.452;9.216;2023-10-19T08:55:08;470.43;;;183.83;;
8407;SDS011;4241;48.452;9.216;2023-10-19T08:57:38;478.17;;;189.83;;
8407;SDS011;4241;48.452;9.216;2023-10-19T09:00:08;474.97;;;190.63;;
8407;SDS011;4241;48.452;9.216;2023-10-19T09:02:36;475.30;;;187.77;;
8407;SDS011;4241;48.452;9.216;2023-10-19T09:05:06;470.13;;;186.87;;
8407;SDS011;4241;48.452;9.216;2023-10-19T09:07:34;476.90;;;189.47;;
8407;SDS011;4241;48.452;9.216;2023-10-19T09:10:01;473.37;;;185.63;;
8407;SDS011;4241;48.452;9.216;2023-10-19T09:12:30;472.37;;;185.23;;
8407;SDS011;4241;48.452;9.216;2023-10-19T09:14:59;472.37;;;187.27;;
8407;SDS011;4241;48.452;9.216;2023-10-19T09:17:29;476.40;;;191.73;;
8407;SDS011;4241;48.452;9.216;2023-10-19T09:19:57;475.13;;;189.53;;
8407;SDS011;4241;48.452;9.216;2023-10-19T09:22:24;477.37;;;189.20;;
8407;SDS011;4241;48.452;9.216;2023-10-19T09:24:52;477.53;;;193.30;;
8407;SDS011;4241;48.452;9.216;2023-10-19T09:27:20;475.63;;;190.27;;
8407;SDS011;4241;48.452;9.216;2023-10-19T09:29:47;474.80;;;188.57;;
8407;SDS011;4241;48.452;9.216;2023-10-19T09:32:17;473.03;;;186.37;;
8407;SDS011;4241;48.452;9.216;2023-10-19T09:34:44;477.77;;;192.63;;
8407;SDS011;4241;48.452;9.216;2023-10-19T09:37:14;473.20;;;188.53;;
8407;SDS011;4241;48.452;9.216;2023-10-19T09:39:43;475.90;;;189.00;;
8407;SDS011;4241;48.452;9.216;2023-10-19T09:42:10;470.60;;;183.30;;
8407;SDS011;4241;48.452;9.216;2023-10-19T09:44:41;474.87;;;187.20;;
8407;SDS011;4241;48.452;9.216;2023-10-19T09:47:10;469.60;;;182.83;;
8407;SDS011;4241;48.452;9.216;2023-10-19T09:49:40;474.27;;;184.70;;
8407;SDS011;4241;48.452;9.216;2023-10-19T09:52:08;469.43;;;180.93;;
8407;SDS011;4241;48.452;9.216;2023-10-19T09:54:42;471.07;;;181.73;;
8407;SDS011;4241;48.452;9.216;2023-10-19T09:57:19;475.20;;;185.43;;
8407;SDS011;4241;48.452;9.216;2023-10-19T09:59:56;470.53;;;182.53;;
8407;SDS011;4241;48.452;9.216;2023-10-19T10:02:32;470.03;;;182.20;;
8407;SDS011;4241;48.452;9.216;2023-10-19T10:05:00;468.50;;;180.60;;
8407;SDS011;4241;48.452;9.216;2023-10-19T10:07:29;468.53;;;183.43;;
8407;SDS011;4241;48.452;9.216;2023-10-19T10:09:57;476.13;;;188.63;;
8407;SDS011;4241;48.452;9.216;2023-10-19T10:12:25;472.47;;;185.47;;
8407;SDS011;4241;48.452;9.216;2023-10-19T10:14:57;473.37;;;187.40;;
8407;SDS011;4241;48.452;9.216;2023-10-19T10:17:26;474.23;;;191.17;;
8407;SDS011;4241;48.452;9.216;2023-10-19T10:19:54;478.17;;;192.60;;
8407;SDS011;4241;48.452;9.216;2023-10-19T10:22:26;474.37;;;192.60;;
8407;SDS011;4241;48.452;9.216;2023-10-19T10:24:55;478.93;;;194.40;;
8407;SDS011;4241;48.452;9.216;2023-10-19T10:27:22;474.33;;;192.13;;
8407;SDS011;4241;48.452;9.216;2023-10-19T10:29:53;478.00;;;195.43;;
8407;SDS011;4241;48.452;9.216;2023-10-19T10:35:10;475.27;;;194.43;;
8407;SDS011;4241;48.452;9.216;2023-10-19T10:38:20;473.37;;;193.63;;
8407;SDS011;4241;48.452;9.216;2023-10-19T10:40:48;476.57;;;198.97;;
8407;SDS011;4241;48.452;9.216;2023-10-19T10:43:15;474.40;;;195.03;;
8407;SDS011;4241;48.452;9.216;2023-10-19T10:45:42;475.63;;;196.30;;
8407;SDS011;4241;48.452;9.216;2023-10-19T10:48:13;475.37;;;194.13;;
8407;SDS011;4241;48.452;9.216;2023-10-19T10:50:40;477.30;;;198.33;;
8407;SDS011;4241;48.452;9.216;2023-10-19T10:53:07;476.13;;;198.27;;
8407;SDS011;4241;48.452;9.216;2023-10-19T10:55:37;476.87;;;195.57;;
8407;SDS011;4241;48.452;9.216;2023-10-19T10:58:05;480.43;;;198.30;;
8407;SDS011;4241;48.452;9.216;2023-10-19T11:00:32;474.97;;;194.23;;
8407;SDS011;4241;48.452;9.216;2023-10-19T11:03:02;476.23;;;193.43;;
8407;SDS011;4241;48.452;9.216;2023-10-19T11:05:32;473.20;;;190.90;;
8407;SDS011;4241;48.452;9.216;2023-10-19T11:08:05;483.80;;;198.17;;
8407;SDS011;4241;48.452;9.216;2023-10-19T11:10:34;470.87;;;182.47;;
8407;SDS011;4241;48.452;9.216;2023-10-19T11:13:03;477.57;;;192.60;;
8407;SDS011;4241;48.452;9.216;2023-10-19T11:15:31;470.53;;;185.83;;
8407;SDS011;4241;48.452;9.216;2023-10-19T11:17:58;473.67;;;186.77;;
8407;SDS011;4241;48.452;9.216;2023-10-19T11:20:25;472.37;;;186.47;;
8407;SDS011;4241;48.452;9.216;2023-10-19T11:22:53;474.93;;;188.87;;
8407;SDS011;4241;48.452;9.216;2023-10-19T11:25:22;469.33;;;182.07;;
8407;SDS011;4241;48.452;9.216;2023-10-19T11:27:53;473.17;;;187.97;;
8407;SDS011;4241;48.452;9.216;2023-10-19T11:30:25;478.10;;;194.57;;
8407;SDS011;4241;48.452;9.216;2023-10-19T11:32:52;471.43;;;182.83;;
8407;SDS011;4241;48.452;9.216;2023-10-19T11:35:23;477.27;;;191.30;;
8407;SDS011;4241;48.452;9.216;2023-10-19T11:37:51;472.23;;;187.27;;
8407;SDS011;4241;48.452;9.216;2023-10-19T11:40:19;481.97;;;195.57;;
8407;SDS011;4241;48.452;9.216;2023-10-19T11:42:47;471.83;;;188.80;;
8407;SDS011;4241;48.452;9.216;2023-10-19T11:45:14;478.57;;;190.93;;
8407;SDS011;4241;48.452;9.216;2023-10-19T11:47:42;470.80;;;184.83;;
8407;SDS011;4241;48.452;9.216;2023-10-19T11:50:10;482.67;;;193.33;;
8407;SDS011;4241;48.452;9.216;2023-10-19T11:52:40;470.90;;;185.17;;
8407;SDS011;4241;48.452;9.216;2023-10-19T11:55:07;475.83;;;188.93;;
8407;SDS011;4241;48.452;9.216;2023-10-19T11:57:34;472.43;;;186.27;;
8407;SDS011;4241;48.452;9.216;2023-10-19T12:00:02;479.90;;;194.63;;
8407;SDS011;4241;48.452;9.216;2023-10-19T12:02:33;473.93;;;186.80;;
8407;SDS011;4241;48.452;9.216;2023-10-19T12:05:04;476.03;;;186.40;;
8407;SDS011;4241;48.452;9.216;2023-10-19T12:07:35;469.50;;;183.53;;
8407;SDS011;4241;48.452;9.216;2023-10-19T12:10:02;473.80;;;188.20;;
8407;SDS011;4241;48.452;9.216;2023-10-19T12:12:30;470.70;;;184.57;;
8407;SDS011;4241;48.452;9.216;2023-10-19T12:14:57;469.47;;;182.17;;
8407;SDS011;4241;48.452;9.216;2023-10-19T12:17:24;467.57;;;181.67;;
8407;SDS011;4241;48.452;9.216;2023-10-19T12:19:52;471.30;;;186.60;;
8407;SDS011;4241;48.452;9.216;2023-10-19T12:22:21;473.80;;;191.30;;
8407;SDS011;4241;48.452;9.216;2023-10-19T12:24:49;470.77;;;184.47;;
8407;SDS011;4241;48.452;9.216;2023-10-19T12:27:16;473.23;;;189.07;;
8407;SDS011;4241;48.452;9.216;2023-10-19T12:29:44;472.87;;;189.53;;
8407;SDS011;4241;48.452;9.216;2023-10-19T12:32:11;473.80;;;188.23;;
8407;SDS011;4241;48.452;9.216;2023-10-19T12:34:40;473.73;;;188.23;;
8407;SDS011;4241;48.452;9.216;2023-10-19T12:37:07;471.73;;;183.93;;
8407;SDS011;4241;48.452;9.216;2023-10-19T12:39:37;469.90;;;184.60;;
8407;SDS011;4241;48.452;9.216;2023-10-19T12:42:10;475.67;;;189.73;;
8407;SDS011;4241;48.452;9.216;2023-10-19T12:44:39;469.90;;;182.13;;
8407;SDS011;4241;48.452;9.216;2023-10-19T12:47:06;480.83;;;194.87;;
8407;SDS011;4241;48.452;9.216;2023-10-19T12:49:36;471.30;;;187.13;;
8407;SDS011;4241;48.452;9.216;2023-10-19T12:52:03;475.17;;;186.43;;
8407;SDS011;4241;48.452;9.216;2023-10-19T12:54:32;473.17;;;189.43;;
8407;SDS011;4241;48.452;9.216;2023-10-19T12:57:01;474.97;;;191.83;;
8407;SDS011;4241;48.452;9.216;2023-10-19T12:59:31;471.60;;;191.53;;
8407;SDS011;4241;48.452;9.216;2023-10-19T13:01:59;473.60;;;193.40;;
8407;SDS011;4241;48.452;9.216;2023-10-19T13:04:28;472.07;;;193.50;;
8407;SDS011;4241;48.452;9.216;2023-10-19T13:06:56;473.53;;;193.93;;
8407;SDS011;4241;48.452;9.216;2023-10-19T13:09:23;471.63;;;191.23;;
8407;SDS011;4241;48.452;9.216;2023-10-19T13:11:56;476.53;;;193.83;;
8407;SDS011;4241;48.452;9.216;2023-10-19T13:14:24;475.63;;;197.13;;
8407;SDS011;4241;48.452;9.216;2023-10-19T13:16:51;474.83;;;196.27;;
8407;SDS011;4241;48.452;9.216;2023-10-19T13:19:19;478.37;;;196.00;;
8407;SDS011;4241;48.452;9.216;2023-10-19T13:21:49;472.30;;;191.70;;
8407;SDS011;4241;48.452;9.216;2023-10-19T13:24:17;480.17;;;199.83;;
8407;SDS011;4241;48.452;9.216;2023-10-19T13:26:45;477.53;;;197.80;;
8407;SDS011;4241;48.452;9.216;2023-10-19T13:29:12;481.13;;;199.43;;
8407;SDS011;4241;48.452;9.216;2023-10-19T13:31:41;473.07;;;192.67;;
8407;SDS011;4241;48.452;9.216;2023-10-19T13:34:14;476.03;;;191.33;;
8407;SDS011;4241;48.452;9.216;2023-10-19T13:36:41;474.40;;;195.37;;
8407;SDS011;4241;48.452;9.216;2023-10-19T13:39:09;478.77;;;199.53;;
8407;SDS011;4241;48.452;9.216;2023-10-19T13:41:41;469.37;;;190.60;;
8407;SDS011;4241;48.452;9.216;2023-10-19T13:44:08;475.27;;;192.77;;
8407;SDS011;4241;48.452;9.216;2023-10-19T13:46:36;469.80;;;188.20;;
8407;SDS011;4241;48.452;9.216;2023-10-19T13:49:05;477.47;;;196.33;;
8407;SDS011;4241;48.452;9.216;2023-10-19T13:51:32;467.90;;;186.73;;
8407;SDS011;4241;48.452;9.216;2023-10-19T13:53:59;475.60;;;194.33;;
8407;SDS011;4241;48.452;9.216;2023-10-19T13:56:26;470.33;;;189.63;;
8407;SDS011;4241;48.452;9.216;2023-10-19T13:58:53;473.83;;;191.73;;
8407;SDS011;4241;48.452;9.216;2023-10-19T14:01:20;467.60;;;187.40;;
8407;SDS011;4241;48.452;9.216;2023-10-19T14:03:50;473.27;;;189.17;;
8407;SDS011;4241;48.452;9.216;2023-10-19T14:06:21;473.53;;;191.97;;
8407;SDS011;4241;48.452;9.216;2023-10-19T14:08:49;470.40;;;188.67;;
8407;SDS011;4241;48.452;9.216;2023-10-19T14:11:15;475.07;;;192.67;;
8407;SDS011;4241;48.452;9.216;2023-10-19T14:13:43;471.83;;;191.37;;
8407;SDS011;4241;48.452;9.216;2023-10-19T14:16:10;474.00;;;191.33;;
8407;SDS011;4241;48.452;9.216;2023-10-19T14:18:37;471.83;;;188.73;;
8407;SDS011;4241;48.452;9.216;2023-10-19T14:21:10;472.33;;;185.43;;
8407;SDS011;4241;48.452;9.216;2023-10-19T14:23:39;469.10;;;183.17;;
8407;SDS011;4241;48.452;9.216;2023-10-19T14:26:08;481.13;;;198.03;;
8407;SDS011;4241;48.452;9.216;2023-10-19T14:28:35;471.83;;;189.70;;
8407;SDS011;4241;48.452;9.216;2023-10-19T14:31:02;480.37;;;196.00;;
8407;SDS011;4241;48.452;9.216;2023-10-19T14:33:32;471.40;;;187.80;;
8407;SDS011;4241;48.452;9.216;2023-10-19T14:36:00;476.37;;;191.10;;